createdAt,value
2022-09-09T00:13:00.331Z,120.72575250836121
2022-09-09T00:22:19.132Z,137.06688963210703
2022-09-09T00:28:52.137Z,140.35117056856188
2022-09-09T00:35:17.529Z,136.16722408026754
2022-09-09T00:48:07.130Z,160.63210702341138
2022-09-09T00:54:32.726Z,154.87290969899666
2022-09-09T01:07:27.088Z,143.23411371237458
2022-09-09T01:13:52.407Z,150.56521739130434
2022-09-09T01:20:17.359Z,152.6153846153846
2022-09-09T01:26:51.209Z,143.3846153846154
2022-09-09T01:33:16.502Z,147.2173913043478
2022-09-09T01:39:40.935Z,144.93311036789297
2022-09-09T01:46:31.625Z,134.0
2022-09-09T02:00:09.741Z,136.35117056856188
2022-09-09T02:06:34.781Z,129.81270903010034
2022-09-09T02:12:59.502Z,127.20735785953177
2022-09-09T02:30:32.831Z,113.41471571906355
2022-09-09T02:37:02.590Z,108.35117056856187
2022-09-09T02:43:27.429Z,107.57190635451505
2022-09-09T02:49:52.633Z,102.93311036789298
2022-09-09T03:00:43.972Z,105.93645484949833
2022-09-09T03:07:09.108Z,96.79933110367892
2022-09-09T03:13:33.754Z,95.97324414715719
2022-09-09T03:19:58.405Z,93.2876254180602
2022-09-09T03:26:26.501Z,80.87290969899665
2022-09-09T03:32:52.114Z,77.89632107023411
2022-09-09T03:42:42.026Z,88.18729096989966
2022-09-09T03:49:07.282Z,80.11371237458194
2022-09-09T03:55:31.910Z,71.07023411371237
2022-09-09T04:01:57.506Z,69.42140468227424
2022-09-09T04:08:22.510Z,66.67892976588628
2022-09-09T04:22:24.509Z,58.28428093645485
2022-09-09T04:31:26.194Z,65.26421404682274
2022-09-09T04:37:54.582Z,53.79598662207358
2022-09-09T04:44:32.919Z,61.50501672240803
2022-09-09T04:51:37.515Z,65.40802675585284
2022-09-09T04:58:11.176Z,46.62207357859532
2022-09-09T05:04:38.017Z,34.57190635451505
2022-09-09T05:11:02.906Z,42.240802675585286
2022-09-09T05:21:57.225Z,42.96989966555184
2022-09-09T05:30:37.057Z,37.91638795986622
2022-09-09T05:40:04.909Z,42.046822742474916
2022-09-09T05:46:32.877Z,40.8494983277592
2022-09-09T05:53:00.159Z,40.69899665551839
2022-09-09T05:59:25.963Z,43.862876254180605
2022-09-09T06:05:53.146Z,43.64548494983278
2022-09-09T06:12:28.823Z,39.585284280936456
2022-09-09T06:18:54.922Z,38.17391304347826
2022-09-09T06:25:33.549Z,48.16053511705686
2022-09-09T06:31:58.979Z,42.10033444816054
2022-09-09T06:38:25.523Z,51.220735785953174
2022-09-09T06:44:54.734Z,36.33779264214047
2022-09-09T06:51:26.293Z,37.357859531772576
2022-09-09T06:57:59.882Z,36.05016722408027
2022-09-09T07:04:28.702Z,60.575250836120404
2022-09-09T07:11:01.248Z,63.013377926421406
2022-09-09T07:17:34.130Z,34.55518394648829
2022-09-09T07:26:36.630Z,39.68561872909699
2022-09-09T07:33:04.233Z,38.66555183946488
2022-09-09T07:39:29.775Z,30.05351170568562
2022-09-09T07:50:58.950Z,28.17725752508361
2022-09-09T07:57:24.992Z,33.38795986622073
2022-09-09T08:03:56.459Z,28.1438127090301
2022-09-09T08:10:18.608Z,25.899665551839465
2022-09-09T08:16:40.924Z,20.22742474916388
2022-09-09T08:23:04.961Z,20.99665551839465
2022-09-09T08:31:56.071Z,18.150501672240804
2022-09-09T08:38:17.453Z,20.31438127090301
2022-09-09T08:56:25.861Z,28.103678929765888
2022-09-09T09:03:09.817Z,22.237458193979933
2022-09-09T09:09:31.518Z,21.25083612040134
2022-09-09T09:15:53.205Z,22.809364548494983
2022-09-09T09:22:15.181Z,20.618729096989966
2022-09-09T09:28:45.621Z,25.247491638795985
2022-09-09T09:40:03.068Z,20.779264214046822
2022-09-09T09:46:24.863Z,18.20066889632107
2022-09-09T09:52:47.773Z,19.013377926421406
2022-09-09T09:59:18.042Z,17.42809364548495
2022-09-09T10:06:55.958Z,18.130434782608695
2022-09-09T10:13:17.803Z,22.665551839464882
2022-09-09T10:19:39.502Z,31.953177257525084
2022-09-09T10:27:34.832Z,31.17725752508361
2022-09-09T10:39:45.606Z,36.27759197324415
2022-09-09T10:46:07.307Z,40.75585284280937
2022-09-09T10:52:29.489Z,43.15384615384615
2022-09-09T11:03:24.506Z,38.986622073578594
2022-09-09T11:10:21.945Z,32.297658862876254
2022-09-09T11:16:45.081Z,33.74581939799331
2022-09-09T11:23:06.591Z,28.22742474916388
2022-09-09T11:29:34.680Z,30.722408026755854
2022-09-09T11:40:29.870Z,29.76923076923077
2022-09-09T11:46:52.045Z,27.79933110367893
2022-09-09T11:53:14.365Z,31.150501672240804
2022-09-09T11:59:36.546Z,37.56521739130435
2022-09-09T12:05:58.669Z,43.32107023411371
2022-09-09T12:15:38.988Z,43.20401337792642
2022-09-09T12:22:02.364Z,45.15719063545151
2022-09-09T12:28:27.825Z,55.88963210702341
2022-09-09T12:39:51.178Z,51.30769230769231
2022-09-09T12:46:16.892Z,35.58862876254181
2022-09-09T12:52:43.977Z,39.491638795986624
2022-09-09T12:59:10.021Z,38.50501672240803
2022-09-09T13:05:35.558Z,33.82608695652174
2022-09-09T13:12:00.734Z,31.735785953177256
2022-09-09T13:18:26.081Z,37.936454849498325
2022-09-09T13:24:51.347Z,31.08026755852843
2022-09-09T13:31:16.880Z,29.411371237458194
2022-09-09T13:41:30.590Z,22.464882943143813
2022-09-09T13:47:53.402Z,22.705685618729095
2022-09-09T13:54:16.424Z,24.59197324414716
2022-09-09T14:00:41.998Z,22.31438127090301
2022-09-09T14:07:04.846Z,22.093645484949832
2022-09-09T14:13:26.715Z,17.1438127090301
2022-09-09T14:19:51.220Z,23.702341137123746
2022-09-09T14:26:16.960Z,21.909698996655518
2022-09-09T14:45:46.325Z,24.725752508361204
2022-09-09T14:58:20.004Z,30.06354515050167
2022-09-09T15:04:45.886Z,32.836120401337794
2022-09-09T15:11:10.811Z,23.581939799331103
2022-09-09T15:17:36.535Z,27.498327759197323
2022-09-09T15:24:02.952Z,23.662207357859533
2022-09-09T15:31:45.832Z,29.093645484949832
2022-09-09T15:38:11.168Z,36.31772575250836
2022-09-09T15:44:36.246Z,28.418060200668897
2022-09-09T15:51:01.477Z,26.806020066889634
2022-09-09T15:57:36.532Z,18.588628762541806
2022-09-09T16:04:02.827Z,18.986622073578594
2022-09-09T16:10:28.593Z,18.391304347826086
2022-09-09T16:16:54.509Z,24.505016722408026
2022-09-09T16:32:40.781Z,23.23076923076923
2022-09-09T16:39:06.498Z,21.53846153846154
2022-09-09T16:45:31.965Z,14.33779264214047
2022-09-09T16:52:46.014Z,20.70903010033445
2022-09-09T17:09:12.542Z,18.558528428093645
2022-09-09T17:15:38.067Z,19.137123745819398
2022-09-09T17:22:16.925Z,18.638795986622075
2022-09-09T17:37:18.237Z,21.247491638795985
2022-09-09T17:43:43.523Z,30.82274247491639
2022-09-09T17:50:08.664Z,25.29096989966555
2022-09-09T17:56:34.848Z,26.892976588628763
2022-09-09T18:09:51.078Z,34.35117056856188
2022-09-09T18:16:17.125Z,45.00334448160535
2022-09-09T18:22:43.313Z,41.10033444816054
2022-09-09T18:29:08.746Z,41.953177257525084
2022-09-09T18:39:05.319Z,59.62876254180602
2022-09-09T18:49:59.118Z,81.31772575250837
2022-09-09T19:01:00.909Z,69.56521739130434
2022-09-09T19:07:25.867Z,61.618729096989966
2022-09-09T19:13:51.441Z,55.130434782608695
2022-09-09T19:20:17.009Z,57.19063545150502
2022-09-09T19:26:42.013Z,59.759197324414714
2022-09-09T19:37:49.947Z,79.33444816053512
2022-09-09T19:44:19.385Z,76.55852842809365
2022-09-09T19:50:54.001Z,63.52173913043478
2022-09-09T19:57:28.036Z,67.84949832775919
2022-09-09T20:03:57.405Z,65.10367892976589
2022-09-09T20:21:33.329Z,63.88294314381271
2022-09-09T20:28:12.125Z,54.96655518394649
2022-09-09T20:35:34.464Z,61.2943143812709
2022-09-09T20:47:25.600Z,42.76588628762542
2022-09-09T20:53:56.460Z,40.08361204013378
2022-09-09T21:00:25.034Z,46.551839464882946
2022-09-09T21:07:01.810Z,56.82608695652174
2022-09-09T21:19:39.595Z,56.48494983277592
2022-09-09T21:26:24.769Z,56.508361204013376
2022-09-09T21:33:00.247Z,55.802675585284284
2022-09-09T21:39:33.693Z,46.441471571906355
2022-09-09T21:46:10.403Z,53.735785953177256
2022-09-09T21:52:56.098Z,52.30100334448161
2022-09-09T22:01:46.345Z,35.51505016722408
2022-09-09T22:08:12.461Z,35.21070234113712
2022-09-09T22:19:53.859Z,29.839464882943144
2022-09-09T22:32:13.077Z,24.20066889632107
2022-09-09T22:39:52.035Z,26.471571906354516
2022-09-09T22:46:17.535Z,26.367892976588628
2022-09-09T22:53:15.195Z,24.464882943143813
2022-09-09T22:59:40.502Z,30.568561872909697
2022-09-09T23:30:16.295Z,14.003344481605351
2022-09-09T23:41:25.095Z,16.555183946488295
2022-09-09T23:47:50.133Z,16.494983277591974
2022-09-09T23:57:13.829Z,16.561872909698998
